Portada
METAR-TAF:

METAR-TAF

Aeroports :

Logan County Airport

Lincoln, Illinois, Estats Units d'Amèrica

latitud: 40-09-31N, longitud: 089-20-06W, altitud: 182 m

Observació

L'informe es va fer fa 18 minuts, a les 01:15 UTC
Vent 4 kt del Oest/Nord-Oest
Temperatura 17°C
Humitat 55%
Pressió 1015 hPa
Visibilitat: 16.1 km
Cel clar

METAR: KAAA 180115Z AUTO 30004KT 10SM CLR 17/08 A2996 RMK AO2 T01670082

Hora: 20:33 (01:33 UTC)


TAF: manca

Observacions i pronòstics meteorològics de més de 4000 aeroports (METAR i TAF).

Les estacions disponibles són els punts grocs i vermells al mapa.

Posi el ratolí al punt desitjat per veure el nom de l'estació.

Feu clic per veure les observacions i els pronòstics meteorològics.

Per canviar el mapa: feu clic els botons verds amb una creu de color negre per apropar; al botó verd amb un guió per allunyar la imatge; o en les fletxes verdes per a mapes adjacents.


METAR-TAF: